Time;durP1;ratioP1;P1;durP2;ratioP2;P2;SDS_P1;SDS_P2;PMS_P1;PMS_P2;Temp;Humidity;BMP_temperature;BMP_pressure;BME280_temperature;BME280_humidity;BME280_pressure;Samples;Min_cycle;Max_cycle;Signal;HPM_P1;HPM_P2
2021/06/23 00:01:18;;;;;;;10.35;7.20;;;18.20;44.60;;;;;;6176435;23;20619;-67
2021/06/23 00:04:07;;;;;;;8.85;6.30;;;18.20;44.30;;;;;;6176057;23;20529;-65
2021/06/23 00:06:55;;;;;;;7.78;6.30;;;18.30;46.30;;;;;;6174256;23;20033;-66
2021/06/23 00:09:44;;;;;;;8.52;6.47;;;18.40;45.50;;;;;;6173148;23;20036;-66
2021/06/23 00:12:32;;;;;;;11.60;7.30;;;18.40;44.50;;;;;;6177996;23;20053;-67
2021/06/23 00:15:22;;;;;;;8.98;7.38;;;18.20;44.30;;;;;;6170575;23;20737;-67
2021/06/23 00:18:12;;;;;;;9.43;6.97;;;18.20;45.10;;;;;;6167326;23;20350;-66
2021/06/23 00:21:00;;;;;;;8.40;7.38;;;18.20;46.10;;;;;;6167704;23;20033;-65
2021/06/23 00:23:49;;;;;;;9.68;6.85;;;18.10;47.10;;;;;;6164728;23;20103;-66
2021/06/23 00:26:53;;;;;;;8.02;6.75;;;18.10;47.80;;;;;;6166476;23;20029;-65
2021/06/23 00:29:41;;;;;;;9.98;7.10;;;18.10;48.70;;;;;;6167483;23;20151;-67
2021/06/23 00:32:47;;;;;;;8.88;7.35;;;18.30;51.10;;;;;;6168021;23;20025;-66
2021/06/23 00:35:37;;;;;;;8.80;6.78;;;18.20;50.30;;;;;;6163945;23;20100;-67
2021/06/23 00:38:25;;;;;;;8.95;7.05;;;18.20;51.00;;;;;;6167461;23;20028;-65
2021/06/23 00:41:17;;;;;;;8.48;7.20;;;18.20;51.60;;;;;;6168476;23;20103;-66
2021/06/23 00:44:06;;;;;;;8.32;6.60;;;18.10;52.60;;;;;;6165585;23;20033;-66
2021/06/23 00:46:55;;;;;;;12.02;7.65;;;18.00;52.50;;;;;;6165587;23;20083;-66
2021/06/23 00:49:44;;;;;;;8.05;7.03;;;18.10;53.90;;;;;;6170123;23;20374;-66
2021/06/23 00:52:42;;;;;;;10.93;7.95;;;18.10;54.00;;;;;;6172335;23;20024;-66
2021/06/23 00:55:40;;;;;;;7.90;7.10;;;18.10;55.20;;;;;;6171938;23;20027;-67
2021/06/23 00:58:29;;;;;;;9.25;7.82;;;18.00;55.70;;;;;;6175886;23;20462;-66
2021/06/23 01:01:18;;;;;;;8.23;6.63;;;18.00;57.20;;;;;;6170474;23;20025;-66
2021/06/23 01:04:07;;;;;;;10.68;7.93;;;17.90;56.50;;;;;;6172050;23;20028;-66
2021/06/23 01:07:02;;;;;;;10.30;8.10;;;17.90;56.90;;;;;;6173702;23;20489;-65
2021/06/23 01:09:53;;;;;;;10.55;8.20;;;18.00;57.90;;;;;;6174709;23;20032;-65
2021/06/23 01:12:58;;;;;;;11.40;7.57;;;17.80;57.90;;;;;;6176106;23;20021;-65
2021/06/23 01:15:49;;;;;;;11.63;8.80;;;17.80;58.70;;;;;;6170886;23;20092;-67
2021/06/23 01:18:40;;;;;;;10.45;9.15;;;17.80;59.90;;;;;;6176077;23;20040;-67
2021/06/23 01:21:30;;;;;;;9.25;8.10;;;17.80;60.00;;;;;;6176444;23;20029;-65
2021/06/23 01:24:21;;;;;;;12.82;8.50;;;17.70;60.30;;;;;;6173450;23;20048;-66
2021/06/23 01:27:11;;;;;;;11.73;8.27;;;17.80;60.30;;;;;;6171550;23;20025;-65
2021/06/23 01:29:59;;;;;;;10.65;8.50;;;17.80;60.40;;;;;;6174970;23;20051;-66
2021/06/23 01:33:15;;;;;;;;;;;17.80;60.50;;;;;;6177790;23;20571;-66
2021/06/23 01:36:05;;;;;;;9.63;8.57;;;17.80;61.30;;;;;;6172499;23;19916;-65
2021/06/23 01:38:53;;;;;;;9.77;8.40;;;17.80;61.80;;;;;;6174580;23;20294;-66
2021/06/23 01:41:44;;;;;;;9.23;8.20;;;17.80;63.10;;;;;;6175690;23;20031;-66
2021/06/23 01:44:33;;;;;;;11.68;8.27;;;17.90;63.60;;;;;;6172532;23;20025;-66
2021/06/23 01:47:23;;;;;;;10.32;8.40;;;17.90;63.40;;;;;;6174352;23;20032;-66
2021/06/23 01:50:12;;;;;;;9.82;8.70;;;18.10;63.90;;;;;;6174384;23;20470;-65
2021/06/23 01:53:16;;;;;;;10.95;8.60;;;17.90;62.10;;;;;;6174437;23;20215;-67
2021/06/23 01:56:06;;;;;;;10.30;8.98;;;17.80;63.00;;;;;;6171126;23;20483;-67
2021/06/23 01:58:58;;;;;;;11.75;8.45;;;17.80;63.70;;;;;;6176987;23;20115;-67
2021/06/23 02:02:07;;;;;;;11.60;8.77;;;17.70;63.50;;;;;;6179054;23;20022;-67
2021/06/23 02:05:09;;;;;;;10.77;8.02;;;17.70;64.60;;;;;;6173254;23;20366;-67
2021/06/23 02:08:09;;;;;;;10.20;8.32;;;17.70;64.60;;;;;;6177664;23;20021;-66
2021/06/23 02:11:20;;;;;;;12.25;8.57;;;17.70;64.60;;;;;;6176923;23;20028;-65
2021/06/23 02:14:34;;;;;;;10.90;9.30;;;17.60;64.50;;;;;;6174454;23;20459;-67
2021/06/23 02:17:39;;;;;;;11.38;8.43;;;17.60;64.60;;;;;;6176592;23;20028;-67
2021/06/23 02:20:52;;;;;;;12.05;10.02;;;17.50;65.50;;;;;;6178834;23;20028;-67
2021/06/23 02:23:44;;;;;;;16.00;11.27;;;17.40;66.10;;;;;;6173281;23;20053;-64
2021/06/23 02:26:35;;;;;;;12.35;11.02;;;17.40;66.10;;;;;;6174833;23;20024;-64
2021/06/23 02:29:26;;;;;;;14.80;11.63;;;17.30;66.00;;;;;;6178071;23;20031;-65
2021/06/23 02:32:24;;;;;;;16.70;11.05;;;17.20;67.20;;;;;;6175343;23;20021;-65
2021/06/23 02:35:16;;;;;;;17.42;13.05;;;17.10;67.80;;;;;;6174542;23;20865;-65
2021/06/23 02:38:12;;;;;;;18.70;13.95;;;17.20;68.40;;;;;;6178292;23;20815;-65
2021/06/23 02:41:01;;;;;;;20.70;13.90;;;17.20;68.50;;;;;;6178222;23;20021;-64
2021/06/23 02:43:50;;;;;;;23.88;15.95;;;17.20;68.90;;;;;;6173775;23;20025;-65
2021/06/23 02:46:51;;;;;;;22.38;15.45;;;17.10;68.80;;;;;;6178155;23;20332;-65
2021/06/23 02:49:50;;;;;;;23.38;16.83;;;17.10;69.20;;;;;;6179814;23;20025;-66
2021/06/23 02:52:40;;;;;;;32.17;17.85;;;17.10;70.00;;;;;;6176920;23;20017;-66
2021/06/23 02:55:30;;;;;;;26.00;17.00;;;17.10;70.00;;;;;;6174350;23;20028;-65
2021/06/23 02:58:20;;;;;;;22.35;15.30;;;17.10;70.30;;;;;;6178651;23;20462;-64
2021/06/23 03:01:11;;;;;;;19.77;15.10;;;17.10;70.40;;;;;;6177078;23;20020;-65
2021/06/23 03:04:05;;;;;;;20.85;15.27;;;17.10;70.50;;;;;;6177346;23;20025;-65
2021/06/23 03:07:11;;;;;;;18.25;14.82;;;17.10;70.60;;;;;;6174461;23;20021;-65
2021/06/23 03:10:06;;;;;;;21.52;14.82;;;17.10;70.70;;;;;;6177849;23;20127;-65
2021/06/23 03:13:13;;;;;;;20.70;14.00;;;17.10;70.90;;;;;;6178968;23;20025;-66
2021/06/23 03:16:21;;;;;;;16.52;14.15;;;17.10;71.20;;;;;;6174487;23;20032;-66
2021/06/23 03:19:13;;;;;;;18.23;13.15;;;17.10;71.20;;;;;;6179343;23;20029;-65
2021/06/23 03:22:04;;;;;;;13.77;11.82;;;17.10;71.90;;;;;;6178697;23;20028;-65
2021/06/23 03:24:53;;;;;;;18.80;12.55;;;17.10;71.30;;;;;;6176658;23;20035;-65
2021/06/23 03:27:42;;;;;;;19.63;12.07;;;17.20;71.50;;;;;;6174014;23;20024;-65
2021/06/23 03:30:31;;;;;;;18.05;12.13;;;17.20;71.70;;;;;;6175965;23;20021;-65
2021/06/23 03:33:20;;;;;;;16.92;11.52;;;17.30;72.10;;;;;;6175843;23;20013;-64
2021/06/23 03:36:33;;;;;;;18.35;12.98;;;17.30;72.30;;;;;;6175217;23;20051;-65
2021/06/23 03:39:22;;;;;;;19.92;13.23;;;17.30;72.40;;;;;;6176410;23;20398;-66
2021/06/23 03:42:18;;;;;;;21.25;12.82;;;17.40;72.60;;;;;;6178462;23;20025;-65
2021/06/23 03:45:11;;;;;;;21.10;13.77;;;17.50;72.80;;;;;;6172949;23;20455;-65
2021/06/23 03:47:59;;;;;;;19.50;13.98;;;17.50;72.70;;;;;;6177634;23;20072;-64
2021/06/23 03:50:48;;;;;;;14.50;12.48;;;17.50;72.30;;;;;;6176321;23;20053;-64
2021/06/23 03:53:40;;;;;;;14.23;12.25;;;17.80;71.00;;;;;;6179125;23;20048;-64
2021/06/23 03:56:30;;;;;;;15.23;11.40;;;17.80;69.80;;;;;;6175182;23;20099;-66
2021/06/23 03:59:19;;;;;;;17.35;11.70;;;17.60;68.80;;;;;;6177695;23;20025;-65
2021/06/23 04:02:08;;;;;;;12.68;10.68;;;17.60;69.30;;;;;;6177873;23;20060;-65
2021/06/23 04:04:56;;;;;;;14.77;10.45;;;17.50;69.60;;;;;;6174194;23;20028;-65
2021/06/23 04:07:51;;;;;;;16.97;10.03;;;17.60;70.00;;;;;;6176834;23;20021;-64
2021/06/23 04:10:42;;;;;;;11.38;9.85;;;17.60;69.60;;;;;;6179265;23;20249;-65
2021/06/23 04:13:31;;;;;;;14.23;10.45;;;17.70;69.50;;;;;;6175741;23;20354;-65
2021/06/23 04:16:19;;;;;;;11.95;8.73;;;17.60;69.10;;;;;;6175436;23;20323;-64
2021/06/23 04:19:08;;;;;;;11.38;9.75;;;17.60;69.30;;;;;;6178407;23;20406;-64
2021/06/23 04:22:05;;;;;;;11.85;8.02;;;17.80;69.70;;;;;;6176460;23;20036;-65
2021/06/23 04:24:53;;;;;;;10.45;7.43;;;18.20;63.80;;;;;;6173796;23;20047;-65
2021/06/23 04:27:44;;;;;;;8.73;6.90;;;18.10;63.60;;;;;;6175728;23;20025;-65
2021/06/23 04:30:34;;;;;;;11.07;7.28;;;18.10;64.00;;;;;;6176581;23;20470;-65
2021/06/23 04:33:24;;;;;;;9.68;6.35;;;18.20;64.10;;;;;;6177695;23;20466;-65
2021/06/23 04:36:24;;;;;;;5.28;4.78;;;19.10;58.70;;;;;;6173819;23;20029;-65
2021/06/23 04:39:12;;;;;;;10.23;5.57;;;19.20;45.20;;;;;;6178083;23;20029;-65
2021/06/23 04:42:17;;;;;;;7.57;4.90;;;18.80;51.50;;;;;;6176170;23;20025;-64
2021/06/23 04:45:12;;;;;;;6.40;5.10;;;18.70;53.10;;;;;;6173812;23;20358;-64
2021/06/23 04:48:11;;;;;;;8.93;5.63;;;18.70;54.70;;;;;;6178091;23;20029;-65
2021/06/23 04:51:01;;;;;;;8.02;5.55;;;19.50;42.10;;;;;;6175837;23;20112;-65
2021/06/23 04:53:53;;;;;;;8.23;5.25;;;19.30;47.90;;;;;;6174770;23;20206;-65
2021/06/23 04:56:42;;;;;;;7.43;5.50;;;20.50;32.00;;;;;;6175605;23;20707;-65
2021/06/23 04:59:31;;;;;;;6.75;5.22;;;19.70;44.80;;;;;;6176786;23;20462;-65
2021/06/23 05:02:20;;;;;;;5.80;5.22;;;19.50;46.10;;;;;;6176741;23;20031;-65
2021/06/23 05:05:10;;;;;;;6.97;4.80;;;19.00;48.40;;;;;;6174081;23;20024;-64
2021/06/23 05:07:59;;;;;;;7.68;5.47;;;18.90;49.50;;;;;;6177432;23;20060;-65
2021/06/23 05:10:47;;;;;;;7.90;6.00;;;18.70;51.60;;;;;;6176671;23;20029;-66
2021/06/23 05:13:37;;;;;;;6.85;5.82;;;19.00;50.80;;;;;;6176207;23;20029;-65
2021/06/23 05:16:26;;;;;;;7.55;5.20;;;19.00;50.50;;;;;;6175342;23;20147;-65
2021/06/23 05:19:16;;;;;;;8.05;5.60;;;19.10;49.60;;;;;;6178906;23;20021;-65
2021/06/23 05:22:05;;;;;;;7.72;5.35;;;19.30;46.50;;;;;;6177179;23;20031;-65
2021/06/23 05:24:54;;;;;;;5.85;5.25;;;19.50;42.60;;;;;;6172799;23;20021;-64
2021/06/23 05:27:43;;;;;;;12.93;6.15;;;21.10;23.50;;;;;;6175440;23;20321;-64
2021/06/23 05:30:31;;;;;;;8.60;5.60;;;19.90;29.10;;;;;;6177804;23;20029;-64
2021/06/23 05:33:19;;;;;;;10.95;4.45;;;22.00;14.10;;;;;;6177523;23;20021;-65
2021/06/23 05:36:09;;;;;;;7.45;4.28;;;21.50;12.60;;;;;;6175304;23;20088;-64
2021/06/23 05:38:58;;;;;;;9.25;3.40;;;21.90;11.10;;;;;;6178144;23;20127;-65
2021/06/23 05:41:46;;;;;;;6.60;3.38;;;20.60;18.70;;;;;;6176597;23;20123;-65
2021/06/23 05:44:35;;;;;;;7.55;3.15;;;20.00;23.70;;;;;;6175027;23;20049;-65
2021/06/23 05:47:23;;;;;;;4.90;2.85;;;19.80;24.30;;;;;;6175482;23;20037;-65
2021/06/23 05:50:12;;;;;;;4.57;2.65;;;20.20;25.00;;;;;;6176527;23;20053;-64
2021/06/23 05:53:02;;;;;;;7.47;2.70;;;20.20;23.30;;;;;;6175984;23;20021;-65
2021/06/23 05:55:54;;;;;;;4.45;2.58;;;20.10;25.50;;;;;;6173289;23;20032;-63
2021/06/23 05:58:43;;;;;;;8.20;3.03;;;20.10;28.30;;;;;;6177258;23;20079;-66
2021/06/23 06:01:31;;;;;;;8.65;2.88;;;19.90;29.00;;;;;;6177297;23;20032;-65
2021/06/23 06:04:20;;;;;;;8.52;2.83;;;20.00;28.90;;;;;;6172899;23;20021;-64
2021/06/23 06:07:08;;;;;;;4.00;2.45;;;19.80;29.90;;;;;;6174942;23;20035;-65
2021/06/23 06:09:58;;;;;;;4.45;2.45;;;20.00;28.90;;;;;;6177441;23;20106;-64
2021/06/23 06:12:47;;;;;;;3.00;2.33;;;20.50;28.60;;;;;;6175489;23;20021;-64
2021/06/23 06:15:35;;;;;;;5.68;2.45;;;20.60;21.80;;;;;;6176653;23;20514;-64
2021/06/23 06:18:25;;;;;;;2.85;1.98;;;20.50;20.40;;;;;;6176289;23;20092;-65
2021/06/23 06:21:13;;;;;;;4.22;2.83;;;20.70;21.40;;;;;;6176944;23;20439;-65
2021/06/23 06:24:02;;;;;;;3.65;2.30;;;20.50;19.40;;;;;;6172554;23;20797;-64
2021/06/23 06:26:52;;;;;;;3.67;2.40;;;20.80;20.90;;;;;;6174918;23;20180;-65
2021/06/23 06:29:40;;;;;;;5.13;2.53;;;20.90;15.90;;;;;;6177510;23;20032;-64
2021/06/23 06:32:29;;;;;;;3.28;2.60;;;21.40;15.10;;;;;;6177669;23;20183;-65
2021/06/23 06:35:17;;;;;;;4.63;2.60;;;21.50;10.40;;;;;;6173303;23;20028;-65
2021/06/23 06:38:06;;;;;;;6.07;3.35;;;20.30;11.70;;;;;;6175438;23;20021;-64
2021/06/23 06:40:54;;;;;;;7.07;3.78;;;20.40;13.00;;;;;;6176988;23;20052;-65
2021/06/23 06:43:44;;;;;;;3.58;3.13;;;21.30;14.50;;;;;;6174171;23;20115;-65
2021/06/23 06:46:36;;;;;;;3.90;2.97;;;21.50;10.50;;;;;;6173864;23;20463;-64
2021/06/23 06:49:27;;;;;;;4.55;3.00;;;21.60;10.60;;;;;;6178622;23;20025;-63
2021/06/23 06:52:15;;;;;;;5.82;2.80;;;21.00;13.00;;;;;;6178489;23;20025;-65
2021/06/23 06:55:04;;;;;;;4.50;2.53;;;21.20;11.20;;;;;;6174190;23;20052;-65
2021/06/23 06:57:53;;;;;;;3.38;3.08;;;21.20;9.70;;;;;;6176924;23;20056;-64
2021/06/23 07:00:43;;;;;;;4.80;2.78;;;21.00;10.50;;;;;;6179401;23;20028;-65
2021/06/23 07:03:32;;;;;;;3.97;3.05;;;21.50;15.60;;;;;;6177791;23;20024;-65
2021/06/23 07:06:24;;;;;;;3.15;2.83;;;21.60;15.80;;;;;;6174959;23;20505;-66
2021/06/23 07:09:13;;;;;;;4.70;3.08;;;21.90;12.80;;;;;;6177968;23;20489;-63
2021/06/23 07:12:02;;;;;;;3.55;3.15;;;21.80;10.20;;;;;;6178073;23;20021;-65
2021/06/23 07:14:50;;;;;;;4.47;3.42;;;21.90;8.40;;;;;;6172914;23;20391;-65
2021/06/23 07:17:41;;;;;;;6.90;3.38;;;21.40;9.70;;;;;;6176883;23;20354;-65
2021/06/23 07:20:29;;;;;;;5.75;3.38;;;22.10;11.20;;;;;;6178896;23;20107;-64
2021/06/23 07:23:19;;;;;;;3.70;3.05;;;22.40;7.20;;;;;;6177522;23;20107;-65
2021/06/23 07:26:07;;;;;;;5.55;2.90;;;22.60;7.00;;;;;;6172166;23;20358;-65
2021/06/23 07:29:10;;;;;;;5.68;3.22;;;22.00;9.60;;;;;;6178331;23;20034;-65
2021/06/23 07:32:01;;;;;;;6.43;3.28;;;21.80;11.10;;;;;;6178422;23;20040;-64
2021/06/23 07:37:53;;;;;;;3.78;3.30;;;21.50;11.90;;;;;;6175652;23;20463;-64
2021/06/23 07:40:51;;;;;;;3.47;2.78;;;21.50;11.90;;;;;;6177023;23;20478;-66
2021/06/23 07:43:40;;;;;;;5.30;3.28;;;21.50;11.90;;;;;;6175669;23;20103;-66
2021/06/23 07:46:34;;;;;;;5.45;3.22;;;21.20;12.60;;;;;;6175854;23;20071;-64
2021/06/23 07:49:24;;;;;;;5.22;3.00;;;21.20;14.30;;;;;;6177911;23;20025;-66
2021/06/23 07:52:23;;;;;;;4.40;3.00;;;21.20;13.20;;;;;;6179595;23;20048;-66
2021/06/23 08:10:46;;;;;;;2.88;2.58;;;21.60;6.80;;;;;;6179431;23;20402;-64
2021/06/23 08:13:34;;;;;;;5.38;3.10;;;21.50;5.00;;;;;;6176361;23;20025;-65
2021/06/23 08:16:23;;;;;;;5.10;2.75;;;22.40;5.00;;;;;;6176052;23;20036;-66
2021/06/23 08:19:11;;;;;;;5.68;2.55;;;22.60;2.80;;;;;;6178498;23;20124;-64
2021/06/23 08:22:00;;;;;;;5.18;2.83;;;23.10;1.00;;;;;;6177919;23;20105;-65
2021/06/23 08:24:50;;;;;;;4.00;2.90;;;23.10;1.00;;;;;;6173635;23;20021;-66
2021/06/23 08:27:39;;;;;;;4.53;2.40;;;23.60;1.00;;;;;;6174760;23;20025;-65
2021/06/23 08:30:28;;;;;;;3.90;2.28;;;23.60;1.00;;;;;;6178341;23;20369;-65
2021/06/23 08:33:17;;;;;;;3.90;2.65;;;23.50;1.00;;;;;;6176226;23;20466;-65
2021/06/23 08:36:06;;;;;;;3.58;2.55;;;23.50;1.00;;;;;;6175344;23;20021;-65
2021/06/23 08:38:55;;;;;;;4.57;3.10;;;23.40;1.00;;;;;;6177686;23;20021;-64
2021/06/23 08:41:44;;;;;;;3.58;2.80;;;23.30;1.00;;;;;;6178206;23;20032;-64
2021/06/23 08:44:33;;;;;;;3.47;2.90;;;23.10;1.00;;;;;;6173456;23;20115;-65
2021/06/23 08:47:22;;;;;;;5.53;2.95;;;23.10;1.00;;;;;;6175377;23;20512;-64
2021/06/23 08:50:13;;;;;;;3.47;2.50;;;22.80;1.00;;;;;;6177698;23;20506;-66
2021/06/23 08:53:01;;;;;;;6.05;3.00;;;23.10;1.00;;;;;;6177081;23;20031;-65
2021/06/23 08:55:50;;;;;;;3.22;2.60;;;22.30;1.00;;;;;;6174789;23;20021;-64
2021/06/23 08:58:39;;;;;;;4.43;2.60;;;22.40;1.90;;;;;;6176815;23;20025;-65
2021/06/23 09:01:28;;;;;;;3.97;2.70;;;22.50;1.10;;;;;;6176479;23;20036;-65
2021/06/23 09:04:18;;;;;;;3.47;2.55;;;22.40;1.00;;;;;;6174743;23;20373;-63
2021/06/23 09:07:07;;;;;;;4.10;2.63;;;22.30;1.70;;;;;;6176143;23;20021;-64
2021/06/23 09:09:55;;;;;;;3.30;2.70;;;22.10;1.90;;;;;;6177009;23;20118;-65
2021/06/23 09:13:10;;;;;;;3.42;2.67;;;22.90;1.00;;;;;;6177462;23;20028;-64
2021/06/23 09:16:02;;;;;;;4.00;2.78;;;23.50;1.00;;;;;;6175554;23;20017;-64
2021/06/23 09:18:51;;;;;;;4.93;2.92;;;23.30;1.00;;;;;;6176618;23;20327;-65
2021/06/23 09:21:39;;;;;;;4.30;2.83;;;23.70;1.00;;;;;;6176877;23;20032;-64
2021/06/23 09:24:35;;;;;;;4.93;2.50;;;22.80;1.00;;;;;;6173180;23;20151;-65
2021/06/23 09:27:25;;;;;;;2.30;1.95;;;22.90;1.00;;;;;;6176565;23;20017;-65
2021/06/23 09:30:32;;;;;;;4.70;2.35;;;23.60;1.00;;;;;;6177657;23;20035;-65
2021/06/23 09:33:24;;;;;;;2.20;1.95;;;23.80;1.00;;;;;;6176697;23;20076;-65
2021/06/23 09:36:13;;;;;;;3.85;2.20;;;24.00;1.00;;;;;;6175680;23;20028;-65
2021/06/23 09:39:25;;;;;;;3.80;1.90;;;24.50;1.00;;;;;;6175929;23;20021;-65
2021/06/23 09:42:17;;;;;;;4.78;2.08;;;24.80;1.00;;;;;;6178044;23;20082;-66
2021/06/23 09:45:07;;;;;;;4.70;2.00;;;24.20;1.00;;;;;;6173734;23;20060;-64
2021/06/23 09:47:58;;;;;;;3.00;1.90;;;24.40;1.00;;;;;;6175469;23;20017;-64
2021/06/23 09:50:48;;;;;;;2.05;1.77;;;24.60;1.00;;;;;;6176634;23;20032;-65
2021/06/23 09:53:37;;;;;;;1.90;1.70;;;24.50;1.00;;;;;;6175155;23;20099;-65
2021/06/23 09:56:32;;;;;;;1.98;1.40;;;24.60;1.00;;;;;;6175480;23;20104;-65
2021/06/23 09:59:34;;;;;;;2.42;1.40;;;24.90;1.00;;;;;;6178015;23;20025;-64
2021/06/23 10:02:28;;;;;;;1.80;1.63;;;25.10;1.00;;;;;;6175401;23;20024;-64
2021/06/23 10:05:28;;;;;;;2.40;1.50;;;24.40;1.00;;;;;;6171943;23;20025;-65
2021/06/23 10:08:23;;;;;;;1.80;1.50;;;24.30;1.00;;;;;;6173914;23;20028;-66
2021/06/23 10:11:11;;;;;;;2.53;1.70;;;24.30;1.00;;;;;;6176738;23;20053;-65
2021/06/23 10:14:01;;;;;;;3.00;1.42;;;24.50;1.00;;;;;;6172817;23;20039;-64
2021/06/23 10:16:52;;;;;;;1.33;1.23;;;25.00;1.00;;;;;;6172328;23;20482;-64
2021/06/23 10:19:42;;;;;;;1.88;1.23;;;25.10;1.00;;;;;;6175416;23;20032;-65
2021/06/23 10:22:32;;;;;;;3.22;1.40;;;25.10;1.00;;;;;;6175918;23;20052;-65
2021/06/23 10:25:24;;;;;;;2.00;1.30;;;25.50;1.00;;;;;;6176740;23;20095;-65
2021/06/23 10:28:18;;;;;;;1.50;1.30;;;25.10;1.00;;;;;;6175895;23;20024;-65
2021/06/23 10:31:10;;;;;;;7.70;1.15;;;25.10;1.00;;;;;;6177901;23;20044;-65
2021/06/23 10:33:59;;;;;;;1.30;1.20;;;25.70;1.00;;;;;;6175566;23;20130;-65
2021/06/23 10:36:49;;;;;;;2.03;1.15;;;25.50;1.00;;;;;;6176822;23;20496;-65
2021/06/23 10:39:38;;;;;;;1.77;1.10;;;25.10;1.00;;;;;;6178067;23;20025;-63
2021/06/23 10:42:29;;;;;;;1.48;1.05;;;25.20;1.00;;;;;;6178446;23;20139;-65
2021/06/23 10:45:18;;;;;;;1.40;1.05;;;24.90;1.00;;;;;;6175824;23;20103;-65
2021/06/23 10:48:07;;;;;;;1.08;0.85;;;24.50;1.00;;;;;;6176408;23;20568;-65
2021/06/23 10:50:56;;;;;;;1.45;0.80;;;25.50;1.00;;;;;;6177424;23;20021;-63
2021/06/23 10:53:44;;;;;;;1.50;0.90;;;25.30;1.00;;;;;;6175238;23;20028;-64
2021/06/23 10:56:44;;;;;;;1.38;0.93;;;24.90;1.00;;;;;;6177780;23;20036;-65
2021/06/23 10:59:34;;;;;;;3.88;0.93;;;25.30;1.00;;;;;;6178146;23;20385;-66
2021/06/23 11:02:31;;;;;;;2.88;2.67;;;25.70;1.00;;;;;;6177394;23;20388;-65
2021/06/23 11:05:20;;;;;;;1.88;0.90;;;26.00;1.00;;;;;;6174736;23;20029;-66
2021/06/23 11:08:28;;;;;;;4.20;1.00;;;25.60;1.00;;;;;;6176512;23;20021;-65
2021/06/23 11:11:37;;;;;;;1.50;1.00;;;25.10;1.00;;;;;;6180101;23;20056;-64
2021/06/23 11:14:28;;;;;;;1.83;0.70;;;25.20;1.00;;;;;;6172794;23;20103;-65
2021/06/23 11:17:33;;;;;;;1.05;0.80;;;25.80;1.00;;;;;;6175564;23;20025;-65
2021/06/23 11:20:41;;;;;;;1.02;0.93;;;25.30;1.00;;;;;;6177078;23;20021;-65
2021/06/23 11:24:01;;;;;;;1.63;0.82;;;24.80;1.00;;;;;;6175906;23;20024;-64
2021/06/23 11:26:57;;;;;;;1.25;0.60;;;24.90;1.00;;;;;;6176420;23;20049;-65
2021/06/23 11:29:47;;;;;;;1.88;0.60;;;25.10;1.00;;;;;;6178171;23;20017;-65
2021/06/23 11:32:37;;;;;;;1.00;0.57;;;24.80;1.00;;;;;;6177795;23;20537;-65
2021/06/23 11:35:26;;;;;;;1.00;0.70;;;24.90;1.00;;;;;;6176130;23;20031;-65
2021/06/23 11:38:14;;;;;;;0.85;0.70;;;25.40;1.00;;;;;;6175466;23;20032;-65
2021/06/23 11:41:04;;;;;;;1.27;0.60;;;25.60;1.00;;;;;;6177155;23;20021;-65
2021/06/23 11:43:53;;;;;;;6.25;0.70;;;25.30;1.00;;;;;;6175004;23;20384;-65
2021/06/23 11:46:41;;;;;;;0.73;0.60;;;25.40;1.00;;;;;;6176541;23;20021;-66
2021/06/23 11:49:32;;;;;;;1.65;0.70;;;25.80;1.00;;;;;;6179126;23;20032;-66
2021/06/23 11:52:20;;;;;;;0.85;0.40;;;26.40;1.00;;;;;;6176837;23;20100;-65
2021/06/23 11:55:11;;;;;;;0.75;0.73;;;26.70;1.00;;;;;;6173703;23;20459;-65
2021/06/23 11:58:01;;;;;;;0.68;0.68;;;26.80;1.00;;;;;;6176065;23;20045;-66
2021/06/23 12:00:50;;;;;;;2.53;0.90;;;26.40;1.00;;;;;;6176318;23;20096;-65
2021/06/23 12:03:39;;;;;;;0.82;0.70;;;26.10;1.00;;;;;;6173950;23;20029;-65
2021/06/23 12:06:28;;;;;;;0.82;0.70;;;26.00;1.00;;;;;;6175271;23;20102;-64
2021/06/23 12:09:17;;;;;;;1.08;0.60;;;25.70;1.00;;;;;;6177291;23;20048;-66
2021/06/23 12:12:06;;;;;;;0.70;0.52;;;25.70;1.00;;;;;;6177056;23;20043;-64
2021/06/23 12:14:55;;;;;;;1.38;0.43;;;26.00;1.00;;;;;;6172448;23;20025;-65
2021/06/23 12:17:44;;;;;;;0.70;0.60;;;26.50;1.00;;;;;;6175694;23;20358;-65
2021/06/23 12:20:34;;;;;;;0.70;0.50;;;26.30;1.00;;;;;;6177857;23;20417;-64
2021/06/23 12:23:24;;;;;;;0.70;0.60;;;26.50;1.00;;;;;;6175276;23;20021;-65
2021/06/23 12:26:12;;;;;;;0.60;0.52;;;26.60;1.00;;;;;;6176539;23;20490;-65
2021/06/23 12:29:02;;;;;;;1.05;0.80;;;26.20;1.00;;;;;;6170044;23;20115;-65
2021/06/23 12:31:54;;;;;;;1.60;0.80;;;26.30;1.00;;;;;;6177365;23;20520;-65
2021/06/23 12:34:43;;;;;;;1.30;0.70;;;26.10;1.00;;;;;;6172340;23;20109;-66
2021/06/23 12:37:32;;;;;;;3.90;0.63;;;26.30;1.00;;;;;;6174260;23;20417;-66
2021/06/23 12:40:22;;;;;;;1.17;0.63;;;26.10;1.00;;;;;;6178269;23;20024;-65
2021/06/23 12:43:13;;;;;;;0.43;0.40;;;26.20;1.00;;;;;;6175325;23;20135;-66
2021/06/23 12:46:02;;;;;;;0.93;0.60;;;25.70;1.00;;;;;;6173961;23;20036;-69
2021/06/23 12:48:51;;;;;;;1.25;0.70;;;25.80;1.00;;;;;;6175746;23;20021;-67
2021/06/23 12:51:39;;;;;;;2.20;0.60;;;26.00;1.00;;;;;;6175848;23;20083;-67
2021/06/23 12:54:28;;;;;;;1.25;0.90;;;26.00;1.00;;;;;;6174297;23;20152;-66
2021/06/23 12:57:18;;;;;;;0.70;0.60;;;26.00;1.00;;;;;;6176473;23;20533;-66
2021/06/23 13:00:11;;;;;;;2.67;1.20;;;26.00;1.00;;;;;;6176135;23;20148;-65
2021/06/23 13:02:59;;;;;;;2.70;1.77;;;25.60;1.00;;;;;;6175722;23;20028;-65
2021/06/23 13:05:47;;;;;;;2.92;1.85;;;24.40;1.00;;;;;;6166939;23;20281;-66
2021/06/23 13:08:36;;;;;;;4.75;1.52;;;24.30;1.00;;;;;;6175005;23;20025;-64
2021/06/23 13:11:25;;;;;;;2.90;1.98;;;24.30;1.00;;;;;;6176875;23;20025;-65
2021/06/23 13:14:15;;;;;;;2.67;2.35;;;24.40;1.00;;;;;;6173099;23;20029;-65
2021/06/23 13:17:03;;;;;;;3.22;2.70;;;24.30;1.00;;;;;;6176149;23;20083;-66
2021/06/23 13:19:52;;;;;;;2.80;2.50;;;24.10;1.00;;;;;;6177978;23;20055;-66
2021/06/23 13:22:40;;;;;;;7.18;2.55;;;23.90;1.00;;;;;;6174855;23;20024;-66
2021/06/23 13:25:29;;;;;;;3.60;1.90;;;24.00;1.00;;;;;;6174633;23;20025;-65
2021/06/23 13:28:19;;;;;;;7.25;2.50;;;22.30;1.00;;;;;;6174059;23;20055;-66
2021/06/23 13:31:08;;;;;;;10.13;2.30;;;21.90;1.00;;;;;;6176236;23;20029;-65
2021/06/23 13:33:57;;;;;;;5.88;3.33;;;22.10;1.00;;;;;;6171935;23;20111;-65
2021/06/23 13:36:45;;;;;;;7.47;2.55;;;22.00;1.00;;;;;;6175892;23;20024;-65
2021/06/23 13:39:34;;;;;;;11.02;2.92;;;22.30;1.00;;;;;;6176891;23;20024;-65
2021/06/23 13:42:23;;;;;;;5.15;3.00;;;20.90;1.30;;;;;;6176777;23;20032;-64
2021/06/23 13:45:11;;;;;;;11.85;4.45;;;20.50;8.60;;;;;;6173303;23;20075;-64
2021/06/23 13:48:03;;;;;;;5.30;4.75;;;20.10;21.90;;;;;;6175112;23;20024;-65
2021/06/23 13:50:51;;;;;;;5.10;3.60;;;20.00;23.60;;;;;;6177168;23;20100;-63
2021/06/23 13:53:39;;;;;;;2.75;1.60;;;20.20;18.90;;;;;;6174436;23;20083;-65
2021/06/23 13:56:28;;;;;;;2.38;1.90;;;19.90;14.80;;;;;;6176916;23;20020;-65
2021/06/23 13:59:17;;;;;;;2.00;1.10;;;20.40;11.70;;;;;;6176712;23;20068;-65
2021/06/23 14:02:05;;;;;;;1.30;1.20;;;21.00;2.70;;;;;;6179002;23;20075;-66
2021/06/23 14:04:55;;;;;;;4.38;1.98;;;21.70;1.00;;;;;;6174654;23;20025;-64
2021/06/23 14:07:43;;;;;;;3.17;2.20;;;21.60;1.00;;;;;;6177136;23;20108;-64
2021/06/23 14:10:33;;;;;;;1.20;1.10;;;21.70;1.00;;;;;;6177105;23;20529;-66
2021/06/23 14:13:21;;;;;;;1.73;1.40;;;21.60;1.00;;;;;;6175608;23;20482;-66
2021/06/23 14:16:09;;;;;;;1.50;1.20;;;21.40;1.00;;;;;;6178643;23;20092;-64
2021/06/23 14:18:58;;;;;;;1.73;1.00;;;21.50;1.00;;;;;;6177603;23;20065;-65
2021/06/23 14:21:49;;;;;;;2.85;1.10;;;21.60;1.00;;;;;;6177282;23;20071;-65
2021/06/23 14:24:38;;;;;;;3.78;0.95;;;21.80;1.00;;;;;;6175010;23;20021;-64
2021/06/23 14:27:42;;;;;;;3.65;2.08;;;21.80;1.00;;;;;;6176563;23;20079;-63
2021/06/23 14:30:31;;;;;;;5.43;2.20;;;21.50;1.20;;;;;;6176739;23;20048;-64
2021/06/23 14:33:20;;;;;;;4.38;2.90;;;21.40;3.80;;;;;;6175951;23;20029;-66
2021/06/23 14:36:09;;;;;;;3.97;2.83;;;21.30;6.70;;;;;;6173836;23;20450;-65
2021/06/23 14:39:00;;;;;;;4.70;3.80;;;21.70;7.90;;;;;;6168833;23;20116;-63
2021/06/23 14:41:49;;;;;;;7.25;4.13;;;21.80;11.00;;;;;;6171774;23;20029;-64
2021/06/23 14:44:38;;;;;;;5.18;3.95;;;22.10;10.60;;;;;;6171819;23;20029;-64
2021/06/23 14:47:26;;;;;;;6.70;5.00;;;22.10;12.40;;;;;;6175337;23;20029;-64
2021/06/23 14:50:18;;;;;;;8.25;5.82;;;22.20;14.80;;;;;;6177385;23;20017;-67
2021/06/23 14:53:06;;;;;;;6.70;5.47;;;21.80;18.10;;;;;;6174643;23;20163;-65
2021/06/23 14:55:56;;;;;;;6.43;5.72;;;22.00;19.50;;;;;;6155939;23;20139;-65
2021/06/23 14:58:45;;;;;;;8.70;6.05;;;21.80;19.10;;;;;;6176214;23;20043;-65
2021/06/23 15:01:33;;;;;;;8.50;5.70;;;21.90;18.50;;;;;;6178217;23;20036;-65
2021/06/23 15:04:32;;;;;;;8.30;6.00;;;22.00;18.70;;;;;;6174862;23;20025;-65
2021/06/23 15:07:21;;;;;;;6.15;5.00;;;21.80;20.60;;;;;;6176325;23;20065;-64
2021/06/23 15:10:10;;;;;;;10.07;5.90;;;21.80;20.40;;;;;;6177310;23;20021;-64
2021/06/23 15:13:01;;;;;;;9.35;5.13;;;22.10;19.30;;;;;;6176649;23;20132;-64